Kennicott — WCY2920 — position and weather

sailwx.info

Track history (hours):
 
Tides and Currents Weather Stations Pressure Air Temp Water Temp Dewpoint Dewpoint Depression Visibility Wind Speed Wind Dir Waves Ship Positions

Kennicott

Owner: ALASKA, STATE OF, Anchorage, AK. More information available from US FCC via Universal Licensing System and Coast Guard Vessel Documentation Center.

Last reported at 2017-Jan-07 22:32 UTC. Time now 2017-Mar-30 22:52 UTC.
Position N 52°05' W 128°07'.
Warning: this ship's position is months out of date.

Type: Ship. MMSI: 368250000.

Date/timePositionNaut miles runAvg speedWind from/ knotsBaromVisibWave heightAir tempDewpointWater temp
2017-Jan-07 22:32N 52°05' W 128°07'1212.1
2017-Jan-07 21:34N 51°56' W 127°56'1615.9
2017-Jan-07 20:33N 51°40' W 127°54'1615.6
2017-Jan-07 19:33N 51°24' W 127°51'1515.6
2017-Jan-07 18:33N 51°09' W 127°49'1616.0
2017-Jan-07 17:33N 50°58' W 127°30'1616.0
2017-Jan-07 16:33N 50°49' W 127°09'1716.4
2017-Jan-07 15:32N 50°38' W 126°49'5316.1
2017-Jan-07 12:14N 50°21' W 125°30'1014.5
2017-Jan-07 11:33N 50°12' W 125°22'1313.4
2017-Jan-07 10:33N 50°00' W 125°12'1716.9
2017-Jan-07 09:33N 49°48' W 124°54'1817.5
2017-Jan-07 08:33N 49°36' W 124°35'1717.1
2017-Jan-07 07:33N 49°25' W 124°15'1717.0
2017-Jan-07 06:33N 49°21' W 123°49'1717.2
2017-Jan-07 05:34N 49°10' W 123°30'1717.4
2017-Jan-07 04:33N 48°58' W 123°10'1717.0
2017-Jan-07 03:33N 48°47' W 122°50'1313.5
2017-Jan-07 02:34N 48°39' W 122°34'5 4.8
2017-Jan-07 01:33N 48°43' W 122°31'0 0.0
2017-Jan-07 00:32N 48°43' W 122°31'0 0.0
2017-Jan-06 23:33N 48°43' W 122°31'0 0.0
2017-Jan-06 22:32N 48°43' W 122°31'0 0.0
2017-Jan-06 21:33N 48°43' W 122°31'0 0.0
2017-Jan-06 20:29N 48°43' W 122°31'0 0.0
2017-Jan-06 19:33N 48°43' W 122°31'0 0.0
2017-Jan-06 18:32N 48°43' W 122°31'0 0.0
2017-Jan-06 17:33N 48°43' W 122°31'0 0.0
2017-Jan-06 16:33N 48°43' W 122°31'1 0.5
2017-Jan-06 15:34N 48°44' W 122°32'8 7.6
2017-Jan-06 14:34N 48°41' W 122°42'1312.4
2017-Jan-06 13:33N 48°49' W 122°58'1413.7
2017-Jan-06 12:33N 48°57' W 123°14'1413.9
2017-Jan-06 11:33N 49°07' W 123°29'1414.3
2017-Jan-06 10:33N 49°17' W 123°44'1413.8
2017-Jan-06 09:33N 49°23' W 124°04'1414.2
2017-Jan-06 08:33N 49°29' W 124°24'1515.0
2017-Jan-06 07:33N 49°39' W 124°40'1515.0
2017-Jan-06 06:33N 49°50' W 124°57'1515.0
2017-Jan-06 05:33N 50°00' W 125°13'1414.3
2017-Jan-06 04:33N 50°13' W 125°23'1510.5
2017-Jan-06 03:10N 50°22' W 125°41'4414.4
2017-Jan-06 00:08N 50°33' W 126°47'912.6
2017-Jan-05 23:27N 50°35' W 127°00'1314.1
2017-Jan-05 22:33N 50°42' W 127°17'1515.2
2017-Jan-05 21:34N 50°51' W 127°36'1514.5
2017-Jan-05 20:34N 51°03' W 127°48'1515.4
2017-Jan-05 19:33N 51°19' W 127°52'1717.0
2017-Jan-05 18:33N 51°35' W 127°53'1716.6
2017-Jan-05 17:34N 51°52' W 127°56'  
2017-Jan-01 00:30N 52°04' W 127°55'1516.2
2016-Dec-31 23:33N 51°48' W 127°56'1716.5
2016-Dec-31 22:33N 51°32' W 127°52'1615.8
2016-Dec-31 21:33N 51°16' W 127°53'1414.3
2016-Dec-31 20:33N 51°04' W 127°40'1615.6
2016-Dec-31 19:33N 50°54' W 127°22'1716.5
2016-Dec-31 18:33N 50°45' W 127°00'5116.8
2016-Dec-31 15:30N 50°23' W 125°47'1515.9
2016-Dec-31 14:33N 50°18' W 125°25'1414.3
2016-Dec-31 13:33N 50°05' W 125°16'1211.9
2016-Dec-31 12:33N 49°55' W 125°05'1716.9
2016-Dec-31 11:33N 49°43' W 124°46'1716.9
2016-Dec-31 10:33N 49°31' W 124°28'1615.8
2016-Dec-31 09:34N 49°24' W 124°07'1616.3
2016-Dec-31 08:34N 49°18' W 123°43'1515.3
2016-Dec-31 07:33N 49°07' W 123°26'1615.8
2016-Dec-31 06:33N 48°57' W 123°08'1515.4
2016-Dec-31 05:33N 48°47' W 122°50'1413.7
2016-Dec-31 04:33N 48°38' W 122°34'5 5.3
2016-Dec-31 03:32N 48°43' W 122°31'0 0.0
2016-Dec-31 02:32N 48°43' W 122°31'0 0.0
2016-Dec-31 01:26N 48°43' W 122°31'0 0.0
2016-Dec-31 00:23N 48°43' W 122°31'0 0.0
2016-Dec-30 23:32N 48°43' W 122°31'0 0.0
2016-Dec-30 22:20N 48°43' W 122°31'0 0.0
2016-Dec-30 21:23N 48°43' W 122°31'0 0.0
2016-Dec-30 20:23N 48°43' W 122°31'0 0.0
2016-Dec-30 19:23N 48°43' W 122°31'0 0.2
2016-Dec-30 18:33N 48°44' W 122°31'8 8.4
2016-Dec-30 17:33N 48°40' W 122°42'1615.5
2016-Dec-30 16:33N 48°50' W 123°00'1615.9
2016-Dec-30 15:33N 48°60' W 123°19'1716.5
2016-Dec-30 14:33N 49°12' W 123°36'1616.1
2016-Dec-30 13:33N 49°22' W 123°56'1616.1
2016-Dec-30 12:33N 49°26' W 124°20'1716.6
2016-Dec-30 11:33N 49°38' W 124°38'1716.7
2016-Dec-30 10:33N 49°50' W 124°56'1716.8
2016-Dec-30 09:33N 50°02' W 125°14'1514.7
2016-Dec-30 08:33N 50°15' W 125°24'1614.5
2016-Dec-30 07:26N 50°22' W 125°47'3515.6
2016-Dec-30 05:10N 50°32' W 126°40'914.6
2016-Dec-30 04:32N 50°39' W 126°49'1616.6
2016-Dec-30 03:33N 50°49' W 127°09'1615.8
2016-Dec-30 02:34N 50°58' W 127°30'1514.9
2016-Dec-30 01:34N 51°08' W 127°48'1313.4
2016-Dec-30 00:34N 51°21' W 127°50'1616.2
2016-Dec-29 23:34N 51°37' W 127°53'1716.6
2016-Dec-29 22:33N 51°54' W 127°56'  
Track history (hours):
 
Tides and Currents Weather Stations Pressure Air Temp Water Temp Dewpoint Dewpoint Depression Visibility Wind Speed Wind Dir Waves Ship Positions

Kennicott

Owner: ALASKA, STATE OF, Anchorage, AK. More information available from US FCC via Universal Licensing System and Coast Guard Vessel Documentation Center.

Last reported at 2017-Jan-07 22:32 UTC. Time now 2017-Mar-30 22:52 UTC.
Position N 52°05' W 128°07'.
Warning: this ship's position is months out of date.

Type: Ship. MMSI: 368250000.

Date/timePositionNaut miles runAvg speedWind from/ knotsBaromVisibWave heightAir tempDewpointWater temp
2017-Jan-07 22:32N 52°05' W 128°07'1212.1
2017-Jan-07 21:34N 51°56' W 127°56'1615.9
2017-Jan-07 20:33N 51°40' W 127°54'1615.6
2017-Jan-07 19:33N 51°24' W 127°51'1515.6
2017-Jan-07 18:33N 51°09' W 127°49'1616.0
2017-Jan-07 17:33N 50°58' W 127°30'1616.0
2017-Jan-07 16:33N 50°49' W 127°09'1716.4
2017-Jan-07 15:32N 50°38' W 126°49'5316.1
2017-Jan-07 12:14N 50°21' W 125°30'1014.5
2017-Jan-07 11:33N 50°12' W 125°22'1313.4
2017-Jan-07 10:33N 50°00' W 125°12'1716.9
2017-Jan-07 09:33N 49°48' W 124°54'1817.5
2017-Jan-07 08:33N 49°36' W 124°35'1717.1
2017-Jan-07 07:33N 49°25' W 124°15'1717.0
2017-Jan-07 06:33N 49°21' W 123°49'1717.2
2017-Jan-07 05:34N 49°10' W 123°30'1717.4
2017-Jan-07 04:33N 48°58' W 123°10'1717.0
2017-Jan-07 03:33N 48°47' W 122°50'1313.5
2017-Jan-07 02:34N 48°39' W 122°34'5 4.8
2017-Jan-07 01:33N 48°43' W 122°31'0 0.0
2017-Jan-07 00:32N 48°43' W 122°31'0 0.0
2017-Jan-06 23:33N 48°43' W 122°31'0 0.0
2017-Jan-06 22:32N 48°43' W 122°31'0 0.0
2017-Jan-06 21:33N 48°43' W 122°31'0 0.0
2017-Jan-06 20:29N 48°43' W 122°31'0 0.0
2017-Jan-06 19:33N 48°43' W 122°31'0 0.0
2017-Jan-06 18:32N 48°43' W 122°31'0 0.0
2017-Jan-06 17:33N 48°43' W 122°31'0 0.0
2017-Jan-06 16:33N 48°43' W 122°31'1 0.5
2017-Jan-06 15:34N 48°44' W 122°32'8 7.6
2017-Jan-06 14:34N 48°41' W 122°42'1312.4
2017-Jan-06 13:33N 48°49' W 122°58'1413.7
2017-Jan-06 12:33N 48°57' W 123°14'1413.9
2017-Jan-06 11:33N 49°07' W 123°29'1414.3
2017-Jan-06 10:33N 49°17' W 123°44'1413.8
2017-Jan-06 09:33N 49°23' W 124°04'1414.2
2017-Jan-06 08:33N 49°29' W 124°24'1515.0
2017-Jan-06 07:33N 49°39' W 124°40'1515.0
2017-Jan-06 06:33N 49°50' W 124°57'1515.0
2017-Jan-06 05:33N 50°00' W 125°13'1414.3
2017-Jan-06 04:33N 50°13' W 125°23'1510.5
2017-Jan-06 03:10N 50°22' W 125°41'4414.4
2017-Jan-06 00:08N 50°33' W 126°47'912.6
2017-Jan-05 23:27N 50°35' W 127°00'1314.1
2017-Jan-05 22:33N 50°42' W 127°17'1515.2
2017-Jan-05 21:34N 50°51' W 127°36'1514.5
2017-Jan-05 20:34N 51°03' W 127°48'1515.4
2017-Jan-05 19:33N 51°19' W 127°52'1717.0
2017-Jan-05 18:33N 51°35' W 127°53'1716.6
2017-Jan-05 17:34N 51°52' W 127°56'  
2017-Jan-01 00:30N 52°04' W 127°55'1516.2
2016-Dec-31 23:33N 51°48' W 127°56'1716.5
2016-Dec-31 22:33N 51°32' W 127°52'1615.8
2016-Dec-31 21:33N 51°16' W 127°53'1414.3
2016-Dec-31 20:33N 51°04' W 127°40'1615.6
2016-Dec-31 19:33N 50°54' W 127°22'1716.5
2016-Dec-31 18:33N 50°45' W 127°00'5116.8
2016-Dec-31 15:30N 50°23' W 125°47'1515.9
2016-Dec-31 14:33N 50°18' W 125°25'1414.3
2016-Dec-31 13:33N 50°05' W 125°16'1211.9
2016-Dec-31 12:33N 49°55' W 125°05'1716.9
2016-Dec-31 11:33N 49°43' W 124°46'1716.9
2016-Dec-31 10:33N 49°31' W 124°28'1615.8
2016-Dec-31 09:34N 49°24' W 124°07'1616.3
2016-Dec-31 08:34N 49°18' W 123°43'1515.3
2016-Dec-31 07:33N 49°07' W 123°26'1615.8
2016-Dec-31 06:33N 48°57' W 123°08'1515.4
2016-Dec-31 05:33N 48°47' W 122°50'1413.7
2016-Dec-31 04:33N 48°38' W 122°34'5 5.3
2016-Dec-31 03:32N 48°43' W 122°31'0 0.0
2016-Dec-31 02:32N 48°43' W 122°31'0 0.0
2016-Dec-31 01:26N 48°43' W 122°31'0 0.0
2016-Dec-31 00:23N 48°43' W 122°31'0 0.0
2016-Dec-30 23:32N 48°43' W 122°31'0 0.0
2016-Dec-30 22:20N 48°43' W 122°31'0 0.0
2016-Dec-30 21:23N 48°43' W 122°31'0 0.0
2016-Dec-30 20:23N 48°43' W 122°31'0 0.0
2016-Dec-30 19:23N 48°43' W 122°31'0 0.2
2016-Dec-30 18:33N 48°44' W 122°31'8 8.4
2016-Dec-30 17:33N 48°40' W 122°42'1615.5
2016-Dec-30 16:33N 48°50' W 123°00'1615.9
2016-Dec-30 15:33N 48°60' W 123°19'1716.5
2016-Dec-30 14:33N 49°12' W 123°36'1616.1
2016-Dec-30 13:33N 49°22' W 123°56'1616.1
2016-Dec-30 12:33N 49°26' W 124°20'1716.6
2016-Dec-30 11:33N 49°38' W 124°38'1716.7
2016-Dec-30 10:33N 49°50' W 124°56'1716.8
2016-Dec-30 09:33N 50°02' W 125°14'1514.7
2016-Dec-30 08:33N 50°15' W 125°24'1614.5
2016-Dec-30 07:26N 50°22' W 125°47'3515.6
2016-Dec-30 05:10N 50°32' W 126°40'914.6
2016-Dec-30 04:32N 50°39' W 126°49'1616.6
2016-Dec-30 03:33N 50°49' W 127°09'1615.8
2016-Dec-30 02:34N 50°58' W 127°30'1514.9
2016-Dec-30 01:34N 51°08' W 127°48'1313.4
2016-Dec-30 00:34N 51°21' W 127°50'1616.2
2016-Dec-29 23:34N 51°37' W 127°53'1716.6
2016-Dec-29 22:33N 51°54' W 127°56'  

Dump ship's entire track history